Time;durP1;ratioP1;P1;durP2;ratioP2;P2;SDS_P1;SDS_P2;PMS_P1;PMS_P2;Temp;Humidity;BMP_temperature;BMP_pressure;BME280_temperature;BME280_humidity;BME280_pressure;Samples;Min_cycle;Max_cycle;Signal;HPM_P1;HPM_P2
2023/03/04 00:00:05;;;;;;;37.03;16.23;;;;;;;;;;10379527;28;20056;-87
2023/03/04 00:05:12;;;;;;;41.78;18.70;;;;;;;;;;10394178;28;20041;-86
2023/03/04 00:10:15;;;;;;;37.15;16.90;;;;;;;;;;10387405;28;20273;-86
2023/03/04 00:15:20;;;;;;;42.03;18.05;;;;;;;;;;10378099;28;20052;-83
2023/03/04 00:20:24;;;;;;;39.53;16.42;;;;;;;;;;10385957;28;20052;-82
2023/03/04 00:25:27;;;;;;;36.80;16.20;;;;;;;;;;10375520;28;20053;-82
2023/03/04 00:30:32;;;;;;;35.80;16.30;;;;;;;;;;10375491;28;20046;-82
2023/03/04 00:35:36;;;;;;;36.45;14.98;;;;;;;;;;10374035;28;20052;-83
2023/03/04 00:40:39;;;;;;;36.30;15.27;;;;;;;;;;10363874;28;20059;-83
2023/03/04 00:45:44;;;;;;;38.72;17.17;;;;;;;;;;10375252;28;20069;-87
2023/03/04 00:50:50;;;;;;;34.40;13.55;;;;;;;;;;10385499;28;20132;-84
2023/03/04 00:55:54;;;;;;;31.52;14.00;;;;;;;;;;10376571;28;20556;-82
2023/03/04 01:00:59;;;;;;;31.67;13.85;;;;;;;;;;10385722;28;20037;-84
2023/03/04 01:06:02;;;;;;;28.83;13.15;;;;;;;;;;10383247;28;20605;-86
2023/03/04 01:11:07;;;;;;;32.17;13.35;;;;;;;;;;10395177;28;20041;-84
2023/03/04 01:16:11;;;;;;;32.20;13.80;;;;;;;;;;10374449;28;20142;-85
2023/03/04 01:21:15;;;;;;;32.15;13.05;;;;;;;;;;10370326;28;20046;-82
2023/03/04 01:26:18;;;;;;;30.40;13.60;;;;;;;;;;10380037;28;20053;-83
2023/03/04 01:31:24;;;;;;;30.08;13.25;;;;;;;;;;10363742;28;20046;-85
2023/03/04 01:36:30;;;;;;;31.63;12.75;;;;;;;;;;10382999;28;20145;-84
2023/03/04 01:41:33;;;;;;;;;;;;;;;;;;10381674;28;20080;-87
2023/03/04 01:46:40;;;;;;;30.70;11.98;;;;;;;;;;10391338;28;19921;-85
2023/03/04 01:51:48;;;;;;;24.52;10.75;;;;;;;;;;10388669;28;20075;-83
2023/03/04 01:56:52;;;;;;;31.05;13.93;;;;;;;;;;10393543;28;20329;-85
2023/03/04 02:02:00;;;;;;;32.83;13.68;;;;;;;;;;10373895;28;20091;-83
2023/03/04 02:07:04;;;;;;;26.15;11.18;;;;;;;;;;10374576;28;20045;-83
2023/03/04 02:12:08;;;;;;;27.75;11.90;;;;;;;;;;10386953;28;20549;-83
2023/03/04 02:17:13;;;;;;;31.17;12.82;;;;;;;;;;10381219;28;20104;-84
2023/03/04 02:22:16;;;;;;;32.33;12.93;;;;;;;;;;10383657;28;20057;-83
2023/03/04 02:27:22;;;;;;;31.48;13.25;;;;;;;;;;10382715;28;20178;-83
2023/03/04 02:32:25;;;;;;;32.47;13.60;;;;;;;;;;10371615;28;20069;-83
2023/03/04 02:37:29;;;;;;;32.08;13.98;;;;;;;;;;10385457;28;20060;-84
2023/03/04 02:42:35;;;;;;;28.45;13.05;;;;;;;;;;10400235;28;20068;-87
2023/03/04 02:47:39;;;;;;;31.50;12.90;;;;;;;;;;10406401;28;20109;-85
2023/03/04 02:52:42;;;;;;;27.70;11.18;;;;;;;;;;10389064;28;20049;-83
2023/03/04 02:57:47;;;;;;;27.83;12.65;;;;;;;;;;10387467;28;20077;-88
2023/03/04 03:02:50;;;;;;;24.83;11.68;;;;;;;;;;10393543;28;20063;-86
2023/03/04 03:07:54;;;;;;;25.17;11.32;;;;;;;;;;10396306;28;20084;-84
2023/03/04 03:13:00;;;;;;;23.48;11.40;;;;;;;;;;10411060;28;20066;-84
2023/03/04 03:18:03;;;;;;;25.42;11.80;;;;;;;;;;10397431;28;20057;-84
2023/03/04 03:23:07;;;;;;;25.65;12.15;;;;;;;;;;10379488;28;20042;-85
2023/03/04 03:28:12;;;;;;;26.65;12.20;;;;;;;;;;10390159;28;20042;-82
2023/03/04 03:33:15;;;;;;;27.83;12.50;;;;;;;;;;10368491;28;20045;-88
2023/03/04 03:38:19;;;;;;;27.10;12.38;;;;;;;;;;10387996;28;20045;-83
2023/03/04 03:43:24;;;;;;;29.08;14.15;;;;;;;;;;10380534;28;20056;-83
2023/03/04 03:48:27;;;;;;;29.65;12.13;;;;;;;;;;10386777;28;20045;-83
2023/03/04 03:53:30;;;;;;;30.95;13.75;;;;;;;;;;10386027;28;20128;-83
2023/03/04 03:58:35;;;;;;;29.88;12.63;;;;;;;;;;10386251;28;20156;-87
2023/03/04 04:03:39;;;;;;;30.92;13.90;;;;;;;;;;10382727;28;20073;-83
2023/03/04 04:08:42;;;;;;;31.15;14.30;;;;;;;;;;10373401;28;20655;-83
2023/03/04 04:13:47;;;;;;;30.52;12.48;;;;;;;;;;10380259;28;20049;-85
2023/03/04 04:18:50;;;;;;;30.48;14.20;;;;;;;;;;10389800;28;20132;-88
2023/03/04 04:23:54;;;;;;;34.83;14.32;;;;;;;;;;10390349;28;20049;-84
2023/03/04 04:28:59;;;;;;;26.38;13.13;;;;;;;;;;10390727;28;20049;-85
2023/03/04 04:34:02;;;;;;;28.67;13.32;;;;;;;;;;10385930;28;20081;-85
2023/03/04 04:39:05;;;;;;;30.73;13.30;;;;;;;;;;10390938;28;20132;-86
2023/03/04 04:44:12;;;;;;;28.48;12.55;;;;;;;;;;10391248;28;20501;-84
2023/03/04 04:49:15;;;;;;;30.02;13.40;;;;;;;;;;10387303;28;20059;-86
2023/03/04 04:54:18;;;;;;;29.52;12.85;;;;;;;;;;10381911;28;20064;-87
2023/03/04 04:59:23;;;;;;;29.90;15.07;;;;;;;;;;10375185;28;20050;-84
2023/03/04 05:04:27;;;;;;;32.15;14.38;;;;;;;;;;10374634;28;20447;-83
2023/03/04 05:09:31;;;;;;;27.80;13.20;;;;;;;;;;10368632;28;20049;-83
2023/03/04 05:14:35;;;;;;;31.10;13.23;;;;;;;;;;10372426;28;20053;-83
2023/03/04 05:19:39;;;;;;;28.77;13.75;;;;;;;;;;10373018;28;20055;-85
2023/03/04 05:24:43;;;;;;;27.75;13.02;;;;;;;;;;10378735;28;21033;-85
2023/03/04 05:29:49;;;;;;;26.30;11.85;;;;;;;;;;10397723;28;20048;-87
2023/03/04 05:34:53;;;;;;;26.33;12.50;;;;;;;;;;10375680;28;20136;-85
2023/03/04 05:39:56;;;;;;;27.13;12.57;;;;;;;;;;10376637;28;20046;-83
2023/03/04 05:45:01;;;;;;;25.35;12.63;;;;;;;;;;10371097;28;20135;-84
2023/03/04 05:50:04;;;;;;;27.23;13.10;;;;;;;;;;10368844;28;20049;-83
2023/03/04 05:55:09;;;;;;;25.88;12.68;;;;;;;;;;10370014;28;20137;-84
2023/03/04 06:00:16;;;;;;;26.05;12.57;;;;;;;;;;10391956;28;20045;-83
2023/03/04 06:05:21;;;;;;;25.60;12.55;;;;;;;;;;10374978;28;20053;-82
2023/03/04 06:10:24;;;;;;;28.23;12.90;;;;;;;;;;10375432;28;20054;-86
2023/03/04 06:15:29;;;;;;;27.40;12.88;;;;;;;;;;10375546;28;20042;-89
2023/03/04 06:20:33;;;;;;;24.42;13.13;;;;;;;;;;10391861;28;20049;-84
2023/03/04 06:25:37;;;;;;;26.52;12.38;;;;;;;;;;10395022;28;20049;-83
2023/03/04 06:30:41;;;;;;;28.23;13.70;;;;;;;;;;10368756;28;20050;-83
2023/03/04 06:35:45;;;;;;;27.05;13.38;;;;;;;;;;10365516;28;20124;-84
2023/03/04 06:40:48;;;;;;;26.88;14.05;;;;;;;;;;10376338;28;20041;-86
2023/03/04 06:45:54;;;;;;;24.58;11.75;;;;;;;;;;10376894;28;20136;-88
2023/03/04 06:50:58;;;;;;;26.38;12.70;;;;;;;;;;10367679;28;20041;-88
2023/03/04 06:56:01;;;;;;;24.75;12.80;;;;;;;;;;10362210;28;20146;-83
2023/03/04 07:01:17;;;;;;;25.30;12.13;;;;;;;;;;10371618;28;20041;-85
2023/03/04 07:06:23;;;;;;;27.05;12.65;;;;;;;;;;10361660;28;20037;-85
2023/03/04 07:11:27;;;;;;;26.23;13.07;;;;;;;;;;10372972;28;20037;-84
2023/03/04 07:16:31;;;;;;;25.60;12.73;;;;;;;;;;10364601;28;20633;-86
2023/03/04 07:21:36;;;;;;;21.70;11.57;;;;;;;;;;10372797;28;20581;-87
2023/03/04 07:26:42;;;;;;;26.63;12.05;;;;;;;;;;10369315;28;20579;-85
2023/03/04 07:31:47;;;;;;;25.95;13.02;;;;;;;;;;10372468;28;20041;-82
2023/03/04 07:36:51;;;;;;;23.75;11.57;;;;;;;;;;10366202;28;20054;-86
2023/03/04 07:41:55;;;;;;;25.08;12.65;;;;;;;;;;10367444;28;20168;-86
2023/03/04 07:46:59;;;;;;;22.45;11.50;;;;;;;;;;10385023;28;20132;-87
2023/03/04 07:52:04;;;;;;;33.85;16.08;;;;;;;;;;10368449;28;20046;-86
2023/03/04 07:57:08;;;;;;;30.48;13.80;;;;;;;;;;10364748;28;20080;-84
2023/03/04 08:02:14;;;;;;;27.35;13.98;;;;;;;;;;10363140;28;20053;-85
2023/03/04 08:07:17;;;;;;;24.75;12.75;;;;;;;;;;10356403;28;20065;-84
2023/03/04 08:12:23;;;;;;;33.35;14.88;;;;;;;;;;10366395;28;20699;-84
2023/03/04 08:17:28;;;;;;;28.40;13.53;;;;;;;;;;10382396;28;20045;-86
2023/03/04 08:22:32;;;;;;;23.98;10.88;;;;;;;;;;10368340;28;20041;-86
2023/03/04 08:27:36;;;;;;;19.80;9.75;;;;;;;;;;10382835;28;20049;-87
2023/03/04 08:32:40;;;;;;;17.05;8.80;;;;;;;;;;10365699;28;20520;-87
2023/03/04 08:37:44;;;;;;;18.50;9.18;;;;;;;;;;10364461;28;20045;-86
2023/03/04 08:42:48;;;;;;;14.52;7.72;;;;;;;;;;10366672;28;20046;-85
2023/03/04 08:47:53;;;;;;;15.10;8.50;;;;;;;;;;10360797;28;20050;-84
2023/03/04 08:52:56;;;;;;;15.27;7.25;;;;;;;;;;10363059;28;20060;-84
2023/03/04 08:58:00;;;;;;;17.73;9.57;;;;;;;;;;10358457;28;20076;-86
2023/03/04 09:03:05;;;;;;;13.75;6.78;;;;;;;;;;10372431;28;20290;-87
2023/03/04 09:08:09;;;;;;;16.27;7.47;;;;;;;;;;10365794;28;20049;-86
2023/03/04 09:13:14;;;;;;;12.77;6.50;;;;;;;;;;10367839;28;20053;-87
2023/03/04 09:18:24;;;;;;;11.15;5.90;;;;;;;;;;10361702;28;20072;-88
2023/03/04 09:23:27;;;;;;;13.70;7.55;;;;;;;;;;10368102;28;20091;-84
2023/03/04 09:28:31;;;;;;;15.30;7.63;;;;;;;;;;10363135;28;20041;-84
2023/03/04 09:33:35;;;;;;;11.73;6.45;;;;;;;;;;10370592;28;20612;-86
2023/03/04 09:38:40;;;;;;;12.80;7.03;;;;;;;;;;10367003;28;20049;-84
2023/03/04 09:43:44;;;;;;;12.80;6.60;;;;;;;;;;10357339;28;20048;-84
2023/03/04 09:48:51;;;;;;;19.50;9.70;;;;;;;;;;10360849;28;20046;-84
2023/03/04 09:54:05;;;;;;;13.07;7.38;;;;;;;;;;10364318;28;20410;-84
2023/03/04 09:59:17;;;;;;;22.80;12.82;;;;;;;;;;10365820;28;20092;-83
2023/03/04 10:04:32;;;;;;;20.75;10.32;;;;;;;;;;10372757;28;20658;-84
2023/03/04 10:09:46;;;;;;;10.52;5.63;;;;;;;;;;10385546;28;20125;-83
2023/03/04 10:14:57;;;;;;;15.55;6.38;;;;;;;;;;10372914;28;20048;-86
2023/03/04 10:20:05;;;;;;;17.05;7.72;;;;;;;;;;10376887;28;20068;-86
2023/03/04 10:25:18;;;;;;;10.60;6.40;;;;;;;;;;10376986;28;20132;-86
2023/03/04 10:30:32;;;;;;;15.85;7.13;;;;;;;;;;10380135;28;20045;-84
2023/03/04 10:35:38;;;;;;;16.00;6.82;;;;;;;;;;10366323;28;20049;-84
2023/03/04 10:40:42;;;;;;;17.67;7.28;;;;;;;;;;10372296;28;20049;-83
2023/03/04 10:45:54;;;;;;;16.05;5.30;;;;;;;;;;10365256;28;20041;-83
2023/03/04 10:51:13;;;;;;;11.63;5.00;;;;;;;;;;10378846;28;20049;-86
2023/03/04 10:56:33;;;;;;;11.80;6.05;;;;;;;;;;10375211;28;20053;-90
2023/03/04 11:01:36;;;;;;;13.35;5.35;;;;;;;;;;10392704;28;20072;-87
2023/03/04 11:06:44;;;;;;;7.65;4.43;;;;;;;;;;10369506;28;20459;-84
2023/03/04 11:11:49;;;;;;;7.97;3.75;;;;;;;;;;10368961;28;20140;-84
2023/03/04 11:16:56;;;;;;;8.18;4.18;;;;;;;;;;10372077;28;20048;-86
2023/03/04 11:22:02;;;;;;;7.82;4.00;;;;;;;;;;10380177;28;20052;-90
2023/03/04 11:27:12;;;;;;;14.27;6.40;;;;;;;;;;10371131;28;20099;-84
2023/03/04 11:32:20;;;;;;;12.95;6.55;;;;;;;;;;10369736;28;20053;-83
2023/03/04 11:37:31;;;;;;;11.05;5.65;;;;;;;;;;10380231;28;20047;-83
2023/03/04 11:42:39;;;;;;;10.27;5.38;;;;;;;;;;10391664;28;20049;-84
2023/03/04 11:47:50;;;;;;;12.00;6.10;;;;;;;;;;10372828;28;20436;-84
2023/03/04 11:53:05;;;;;;;16.48;6.53;;;;;;;;;;10376881;28;20041;-84
2023/03/04 11:58:35;;;;;;;14.73;5.97;;;;;;;;;;10366954;28;20069;-84
2023/03/04 12:04:09;;;;;;;9.38;5.10;;;;;;;;;;10366854;28;20353;-84
2023/03/04 12:09:34;;;;;;;17.40;6.90;;;;;;;;;;10361048;28;20072;-83
2023/03/04 12:14:43;;;;;;;12.77;6.43;;;;;;;;;;10387341;28;20041;-83
2023/03/04 12:20:15;;;;;;;12.63;5.78;;;;;;;;;;10367280;28;20054;-82
2023/03/04 12:25:45;;;;;;;20.33;9.05;;;;;;;;;;10360845;28;20068;-84
2023/03/04 12:30:59;;;;;;;10.20;5.15;;;;;;;;;;10349552;28;20057;-85
2023/03/04 12:36:16;;;;;;;13.43;5.85;;;;;;;;;;10361333;28;20136;-88
2023/03/04 12:41:33;;;;;;;10.73;5.07;;;;;;;;;;10374103;28;20037;-86
2023/03/04 12:46:44;;;;;;;12.68;5.15;;;;;;;;;;10372087;28;20041;-84
2023/03/04 12:51:54;;;;;;;11.15;5.68;;;;;;;;;;10358305;28;20045;-85
2023/03/04 12:57:02;;;;;;;8.43;4.20;;;;;;;;;;10364554;28;20073;-82
2023/03/04 13:02:37;;;;;;;10.95;5.05;;;;;;;;;;10373868;28;20042;-82
2023/03/04 13:07:54;;;;;;;10.02;5.60;;;;;;;;;;10373937;28;20051;-87
2023/03/04 13:13:00;;;;;;;6.60;3.45;;;;;;;;;;10376191;28;20046;-85
2023/03/04 13:18:31;;;;;;;9.20;4.53;;;;;;;;;;10390723;28;20077;-86
2023/03/04 13:23:35;;;;;;;6.63;3.20;;;;;;;;;;10370306;28;20052;-84
2023/03/04 13:28:40;;;;;;;11.18;4.90;;;;;;;;;;10370227;28;20084;-85
2023/03/04 13:34:30;;;;;;;7.38;3.78;;;;;;;;;;10385101;28;20064;-87
2023/03/04 13:39:36;;;;;;;6.32;3.60;;;;;;;;;;10345950;28;20076;-87
2023/03/04 13:45:01;;;;;;;5.38;3.65;;;;;;;;;;10362229;28;20480;-85
2023/03/04 13:50:38;;;;;;;4.82;2.33;;;;;;;;;;10354408;28;20045;-86
2023/03/04 13:55:44;;;;;;;5.43;2.95;;;;;;;;;;10341113;28;20042;-84
2023/03/04 14:00:52;;;;;;;8.13;4.32;;;;;;;;;;10352257;28;20120;-85
2023/03/04 14:06:13;;;;;;;;;;;;;;;;;;10376242;28;20408;-84
2023/03/04 14:11:26;;;;;;;7.80;4.70;;;;;;;;;;10374291;28;19925;-84
2023/03/04 14:16:38;;;;;;;4.68;3.03;;;;;;;;;;10375364;28;20652;-87
2023/03/04 14:21:46;;;;;;;8.02;3.50;;;;;;;;;;10375380;28;20081;-85
2023/03/04 14:27:03;;;;;;;3.05;2.30;;;;;;;;;;10374758;28;20394;-84
2023/03/04 14:32:07;;;;;;;3.75;2.83;;;;;;;;;;10375422;28;20080;-86
2023/03/04 14:37:22;;;;;;;6.15;3.65;;;;;;;;;;10376836;28;20049;-85
2023/03/04 14:42:41;;;;;;;7.38;4.07;;;;;;;;;;10380541;28;20561;-85
2023/03/04 14:47:47;;;;;;;7.05;3.78;;;;;;;;;;10376041;28;20133;-85
2023/03/04 14:53:03;;;;;;;;;;;;;;;;;;10391275;28;20502;-84
2023/03/04 14:58:09;;;;;;;7.15;4.47;;;;;;;;;;10375099;23;20025;-81
2023/03/04 15:03:22;;;;;;;4.00;2.97;;;;;;;;;;10371898;28;20132;-81
2023/03/04 15:08:27;;;;;;;7.57;4.35;;;;;;;;;;10389329;28;20064;-82
2023/03/04 15:13:40;;;;;;;3.95;2.58;;;;;;;;;;10401729;28;20084;-81
2023/03/04 15:18:55;;;;;;;5.80;3.70;;;;;;;;;;10407452;28;20042;-80
2023/03/04 15:24:00;;;;;;;6.13;3.72;;;;;;;;;;10383870;28;20049;-80
2023/03/04 15:29:13;;;;;;;6.72;3.78;;;;;;;;;;10368559;28;20112;-79
2023/03/04 15:34:19;;;;;;;9.90;4.60;;;;;;;;;;10358681;28;20069;-80
2023/03/04 15:39:22;;;;;;;4.45;2.50;;;;;;;;;;10389243;28;20047;-81
2023/03/04 15:44:27;;;;;;;5.40;3.00;;;;;;;;;;10372272;28;20543;-81
2023/03/04 15:49:30;;;;;;;4.03;2.75;;;;;;;;;;10390831;28;20041;-81
2023/03/04 15:54:33;;;;;;;4.57;2.42;;;;;;;;;;10372375;28;20500;-81
2023/03/04 15:59:38;;;;;;;5.70;4.03;;;;;;;;;;10370318;28;20055;-80
2023/03/04 16:04:41;;;;;;;7.90;3.58;;;;;;;;;;10372552;28;20045;-81
2023/03/04 16:09:45;;;;;;;4.63;3.33;;;;;;;;;;10361424;28;20066;-81
2023/03/04 16:14:51;;;;;;;8.85;4.40;;;;;;;;;;10373600;28;20189;-81
2023/03/04 16:19:55;;;;;;;6.40;3.90;;;;;;;;;;10374903;28;20097;-81
2023/03/04 16:24:58;;;;;;;8.35;4.22;;;;;;;;;;10391088;28;20037;-80
2023/03/04 16:30:03;;;;;;;5.50;3.17;;;;;;;;;;10392576;28;20140;-83
2023/03/04 16:35:07;;;;;;;4.75;2.70;;;;;;;;;;10384578;28;20072;-81
2023/03/04 16:40:13;;;;;;;3.50;2.25;;;;;;;;;;10392362;28;20054;-80
2023/03/04 16:45:19;;;;;;;;;;;;;;;;;;10397869;28;20069;-81
2023/03/04 16:50:26;;;;;;;3.67;2.67;;;;;;;;;;10377765;28;19921;-81
2023/03/04 16:55:30;;;;;;;4.13;2.55;;;;;;;;;;10379542;28;20056;-80
2023/03/04 17:00:35;;;;;;;3.70;1.95;;;;;;;;;;10395376;28;20045;-81
2023/03/04 17:05:39;;;;;;;4.87;3.10;;;;;;;;;;10369854;28;20053;-81
2023/03/04 17:10:43;;;;;;;5.53;3.05;;;;;;;;;;10364453;28;20395;-81
2023/03/04 17:15:47;;;;;;;2.75;1.88;;;;;;;;;;10369235;28;20044;-82
2023/03/04 17:20:51;;;;;;;2.33;1.80;;;;;;;;;;10368645;28;20069;-80
2023/03/04 17:25:56;;;;;;;3.15;1.63;;;;;;;;;;10369168;28;20543;-80
2023/03/04 17:31:01;;;;;;;6.97;3.40;;;;;;;;;;10369313;28;20053;-81
2023/03/04 17:36:05;;;;;;;4.60;2.30;;;;;;;;;;10367200;28;20064;-81
2023/03/04 17:41:12;;;;;;;5.85;2.58;;;;;;;;;;10369605;28;20041;-81
2023/03/04 17:46:19;;;;;;;3.97;2.17;;;;;;;;;;10363648;28;20045;-81
2023/03/04 17:51:28;;;;;;;3.90;2.80;;;;;;;;;;10367866;28;20354;-81
2023/03/04 17:56:32;;;;;;;5.43;3.22;;;;;;;;;;10352087;28;20038;-81
2023/03/04 18:01:38;;;;;;;4.93;2.93;;;;;;;;;;10387689;28;20750;-82
2023/03/04 18:06:42;;;;;;;3.33;2.05;;;;;;;;;;10362617;28;20041;-81
2023/03/04 18:11:47;;;;;;;2.53;1.98;;;;;;;;;;10388703;28;20129;-80
2023/03/04 18:16:51;;;;;;;3.50;1.80;;;;;;;;;;10371967;28;20043;-81
2023/03/04 18:21:55;;;;;;;4.40;3.95;;;;;;;;;;10371217;28;20497;-80
2023/03/04 18:26:58;;;;;;;2.30;2.10;;;;;;;;;;10377335;28;20058;-80
2023/03/04 18:32:03;;;;;;;3.83;2.67;;;;;;;;;;10356457;28;20049;-80
2023/03/04 18:37:06;;;;;;;2.88;2.00;;;;;;;;;;10385734;28;20262;-80
2023/03/04 18:42:10;;;;;;;2.30;1.52;;;;;;;;;;10377713;28;20050;-82
2023/03/04 18:47:14;;;;;;;2.28;1.98;;;;;;;;;;10367818;28;20042;-81
2023/03/04 18:52:18;;;;;;;3.80;1.70;;;;;;;;;;10359126;28;20049;-81
2023/03/04 18:57:22;;;;;;;3.92;2.00;;;;;;;;;;10381030;28;20136;-82
2023/03/04 19:02:30;;;;;;;1.90;1.60;;;;;;;;;;10365042;28;20211;-80
2023/03/04 19:07:34;;;;;;;2.00;1.70;;;;;;;;;;10366773;28;20479;-80
2023/03/04 19:12:37;;;;;;;2.67;1.80;;;;;;;;;;10356816;28;20448;-80
2023/03/04 19:17:45;;;;;;;2.67;1.42;;;;;;;;;;10377495;28;20045;-80
2023/03/04 19:22:49;;;;;;;1.92;1.35;;;;;;;;;;10367256;28;20125;-81
2023/03/04 19:27:54;;;;;;;3.25;1.60;;;;;;;;;;10371075;28;20055;-81
2023/03/04 19:32:59;;;;;;;2.10;1.48;;;;;;;;;;10380500;28;20045;-81
2023/03/04 19:38:02;;;;;;;2.15;1.60;;;;;;;;;;10402215;28;20057;-80
2023/03/04 19:43:05;;;;;;;2.65;1.80;;;;;;;;;;10382504;28;20048;-80
2023/03/04 19:48:10;;;;;;;4.35;3.00;;;;;;;;;;10388569;28;20053;-81
2023/03/04 19:53:17;;;;;;;5.97;3.80;;;;;;;;;;10380838;28;20084;-80
2023/03/04 19:58:21;;;;;;;3.83;2.67;;;;;;;;;;10386331;28;20045;-80
2023/03/04 20:03:25;;;;;;;11.18;6.75;;;;;;;;;;10359008;28;20800;-81
2023/03/04 20:08:29;;;;;;;6.43;4.25;;;;;;;;;;10365815;28;20619;-80
2023/03/04 20:13:32;;;;;;;6.70;4.75;;;;;;;;;;10363938;28;20064;-80
2023/03/04 20:18:37;;;;;;;5.13;3.70;;;;;;;;;;10363464;28;20412;-81
2023/03/04 20:23:40;;;;;;;5.97;4.35;;;;;;;;;;10358456;28;20527;-81
2023/03/04 20:28:44;;;;;;;5.97;4.03;;;;;;;;;;10375831;28;20045;-80
2023/03/04 20:33:49;;;;;;;3.63;2.70;;;;;;;;;;10357013;28;20140;-81
2023/03/04 20:38:54;;;;;;;5.27;3.30;;;;;;;;;;10366543;28;20077;-81
2023/03/04 20:44:05;;;;;;;3.50;2.78;;;;;;;;;;10388329;28;20050;-81
2023/03/04 20:49:14;;;;;;;5.00;3.10;;;;;;;;;;10377832;28;20034;-80
2023/03/04 20:54:18;;;;;;;5.60;2.85;;;;;;;;;;10370919;28;20133;-82
2023/03/04 20:59:22;;;;;;;7.00;3.65;;;;;;;;;;10376235;28;20124;-81
2023/03/04 21:04:32;;;;;;;5.35;2.83;;;;;;;;;;10375994;28;20045;-81
2023/03/04 21:09:36;;;;;;;4.05;2.15;;;;;;;;;;10391978;28;20516;-81
2023/03/04 21:14:40;;;;;;;2.80;2.47;;;;;;;;;;10391428;28;20072;-81
2023/03/04 21:19:45;;;;;;;3.40;2.42;;;;;;;;;;10369929;28;20064;-81
2023/03/04 21:24:48;;;;;;;4.95;3.38;;;;;;;;;;10375712;28;20057;-81
2023/03/04 21:29:51;;;;;;;3.28;2.10;;;;;;;;;;10374901;28;20132;-81
2023/03/04 21:34:56;;;;;;;3.58;2.65;;;;;;;;;;10375375;28;20630;-81
2023/03/04 21:40:01;;;;;;;5.22;2.45;;;;;;;;;;10372238;28;20049;-81
2023/03/04 21:45:05;;;;;;;4.50;2.78;;;;;;;;;;10391400;28;20570;-81
2023/03/04 21:50:11;;;;;;;5.05;2.90;;;;;;;;;;10390544;28;20059;-82
2023/03/04 21:55:14;;;;;;;3.83;2.77;;;;;;;;;;10404214;28;20535;-81
2023/03/04 22:00:18;;;;;;;4.20;3.28;;;;;;;;;;10387292;28;20132;-81
2023/03/04 22:05:23;;;;;;;5.13;3.22;;;;;;;;;;10383612;28;20060;-81
2023/03/04 22:10:27;;;;;;;4.77;2.87;;;;;;;;;;10384611;28;20049;-81
2023/03/04 22:15:31;;;;;;;6.05;3.47;;;;;;;;;;10401861;28;20072;-82
2023/03/04 22:20:37;;;;;;;5.63;3.42;;;;;;;;;;10383715;28;20059;-81
2023/03/04 22:25:41;;;;;;;6.40;3.58;;;;;;;;;;10385465;28;20060;-82
2023/03/04 22:30:45;;;;;;;5.07;3.42;;;;;;;;;;10403506;28;20050;-82
2023/03/04 22:35:49;;;;;;;5.07;3.90;;;;;;;;;;10384326;28;20577;-81
2023/03/04 22:40:53;;;;;;;4.68;3.90;;;;;;;;;;10383953;28;20305;-81
2023/03/04 22:45:58;;;;;;;5.10;3.97;;;;;;;;;;10385684;28;20053;-81
2023/03/04 22:51:07;;;;;;;6.22;4.50;;;;;;;;;;10401565;28;20057;-82
2023/03/04 22:56:11;;;;;;;5.93;4.03;;;;;;;;;;10384515;28;20041;-82
2023/03/04 23:01:16;;;;;;;7.35;4.70;;;;;;;;;;10384273;28;20619;-81
2023/03/04 23:06:23;;;;;;;7.20;4.35;;;;;;;;;;10375721;28;20049;-82
2023/03/04 23:11:29;;;;;;;9.10;5.78;;;;;;;;;;10378235;28;20053;-82
2023/03/04 23:16:35;;;;;;;7.38;5.07;;;;;;;;;;10376590;28;20103;-82
2023/03/04 23:21:40;;;;;;;8.32;4.55;;;;;;;;;;10374732;28;20084;-81
2023/03/04 23:26:44;;;;;;;7.82;4.35;;;;;;;;;;10369038;28;20052;-82
2023/03/04 23:31:47;;;;;;;5.85;4.18;;;;;;;;;;10373694;28;20148;-82
2023/03/04 23:36:52;;;;;;;9.43;4.68;;;;;;;;;;10375103;28;20068;-82
2023/03/04 23:41:55;;;;;;;7.35;4.47;;;;;;;;;;10392653;28;20060;-82
2023/03/04 23:46:58;;;;;;;7.95;4.47;;;;;;;;;;10392991;28;20049;-82
2023/03/04 23:52:03;;;;;;;7.00;4.40;;;;;;;;;;10373825;28;20049;-82
2023/03/04 23:57:06;;;;;;;8.25;4.43;;;;;;;;;;10391057;28;20547;-82
